Time;durP1;ratioP1;P1;durP2;ratioP2;P2;SDS_P1;SDS_P2;PMS_P1;PMS_P2;Temp;Humidity;BMP_temperature;BMP_pressure;BME280_temperature;BME280_humidity;BME280_pressure;Samples;Min_cycle;Max_cycle;Signal;HPM_P1;HPM_P2
2021/10/31 07:59:11;;;;;;;1.40;1.00;;;12.50;99.90;;;;;;4968006;23;20613;-77
2021/10/31 08:01:38;;;;;;;2.73;1.13;;;12.50;99.90;;;;;;4922185;29;20241;-78
2021/10/31 08:04:05;;;;;;;1.67;1.00;;;12.50;99.90;;;;;;4957229;29;20660;-74
2021/10/31 08:06:32;;;;;;;3.10;1.07;;;12.50;99.90;;;;;;4957547;29;20212;-75
2021/10/31 08:08:58;;;;;;;3.30;1.00;;;12.50;99.90;;;;;;4937468;29;20215;-74
2021/10/31 08:11:25;;;;;;;1.30;0.90;;;12.50;99.90;;;;;;4936859;29;20562;-75
2021/10/31 08:13:52;;;;;;;1.17;0.90;;;12.50;99.90;;;;;;4938930;29;20217;-73
2021/10/31 08:16:22;;;;;;;1.70;0.93;;;12.60;99.90;;;;;;4957194;29;20219;-77
2021/10/31 08:18:50;;;;;;;1.27;0.80;;;12.60;99.90;;;;;;4957416;29;20243;-75
2021/10/31 08:21:17;;;;;;;1.37;0.97;;;12.70;99.90;;;;;;4957045;29;20665;-74
2021/10/31 08:23:44;;;;;;;1.40;1.00;;;12.80;99.90;;;;;;4956659;29;20686;-74
2021/10/31 08:26:11;;;;;;;1.43;0.90;;;13.00;99.90;;;;;;4949593;29;20228;-77
2021/10/31 08:28:39;;;;;;;1.80;1.03;;;13.10;99.90;;;;;;4937831;29;20212;-78
2021/10/31 08:31:07;;;;;;;2.03;0.80;;;13.40;99.90;;;;;;4938081;29;20205;-73
2021/10/31 08:33:42;;;;;;;0.90;0.63;;;13.60;99.90;;;;;;4937837;29;20287;-76
2021/10/31 08:36:10;;;;;;;0.83;0.60;;;13.80;99.90;;;;;;4937293;29;20320;-73
2021/10/31 08:38:37;;;;;;;1.00;0.73;;;13.70;99.90;;;;;;4937328;29;20241;-73
2021/10/31 08:41:03;;;;;;;1.00;0.70;;;13.60;99.90;;;;;;4937537;29;20212;-73
2021/10/31 08:43:31;;;;;;;1.90;0.90;;;13.70;99.90;;;;;;4937471;29;20213;-73
2021/10/31 08:45:59;;;;;;;1.97;0.77;;;13.60;99.90;;;;;;4937342;29;20233;-73
2021/10/31 08:48:26;;;;;;;1.90;0.87;;;13.60;99.90;;;;;;4937408;29;20650;-73
2021/10/31 08:50:54;;;;;;;1.40;0.80;;;13.60;99.90;;;;;;4943322;29;20211;-73
2021/10/31 08:53:23;;;;;;;2.97;0.70;;;13.70;99.90;;;;;;4941852;29;20674;-73
2021/10/31 08:55:50;;;;;;;0.80;0.67;;;13.80;99.90;;;;;;4937424;29;20233;-76
2021/10/31 08:58:17;;;;;;;1.17;0.73;;;13.80;99.90;;;;;;4937175;29;20235;-76
2021/10/31 09:00:44;;;;;;;3.20;0.90;;;13.80;99.90;;;;;;4937116;29;20219;-74
2021/10/31 09:03:11;;;;;;;1.63;1.30;;;13.90;99.90;;;;;;4937228;29;20208;-74
2021/10/31 09:05:38;;;;;;;1.57;0.77;;;14.00;99.90;;;;;;4936959;29;20235;-76
2021/10/31 09:08:08;;;;;;;1.60;0.70;;;13.90;99.90;;;;;;4937078;29;20732;-76
2021/10/31 09:10:35;;;;;;;1.37;0.80;;;14.00;99.90;;;;;;4937042;29;20692;-76
2021/10/31 09:13:03;;;;;;;1.07;0.60;;;14.10;99.90;;;;;;4937301;29;20637;-76
2021/10/31 09:15:30;;;;;;;2.37;0.80;;;14.00;99.90;;;;;;4936462;29;20232;-74
2021/10/31 09:17:58;;;;;;;3.13;1.00;;;14.00;99.90;;;;;;4936855;29;20597;-80
2021/10/31 09:20:26;;;;;;;1.03;0.80;;;14.00;99.90;;;;;;4936551;29;20213;-74
2021/10/31 09:22:54;;;;;;;2.27;0.60;;;14.30;99.90;;;;;;4936591;29;20240;-75
2021/10/31 09:25:23;;;;;;;1.80;1.10;;;14.50;99.90;;;;;;4936486;29;20251;-73
2021/10/31 09:27:50;;;;;;;1.10;0.60;;;14.60;99.90;;;;;;4937115;29;20208;-74
2021/10/31 09:30:18;;;;;;;0.70;0.60;;;14.60;99.90;;;;;;4937150;29;20247;-74
2021/10/31 09:32:49;;;;;;;0.90;0.60;;;14.80;99.90;;;;;;4936850;29;20213;-75
2021/10/31 09:35:17;;;;;;;2.93;0.60;;;14.90;99.90;;;;;;4936778;29;20316;-76
2021/10/31 09:37:45;;;;;;;0.53;0.50;;;14.90;99.90;;;;;;4936712;29;20328;-75
2021/10/31 09:40:13;;;;;;;1.17;0.60;;;15.00;99.90;;;;;;4937206;29;20308;-75
2021/10/31 09:42:42;;;;;;;0.60;0.50;;;15.00;99.90;;;;;;4937027;29;20300;-75
2021/10/31 09:45:11;;;;;;;0.97;0.50;;;15.10;99.90;;;;;;4936838;29;20229;-75
2021/10/31 09:47:38;;;;;;;1.00;0.60;;;15.00;99.90;;;;;;4936870;29;20235;-75
2021/10/31 09:50:06;;;;;;;1.03;0.40;;;14.90;99.90;;;;;;4937064;29;20213;-75
2021/10/31 09:52:33;;;;;;;1.30;0.67;;;15.00;99.90;;;;;;4936661;29;20219;-74
2021/10/31 09:55:00;;;;;;;0.73;0.53;;;15.00;99.90;;;;;;4936954;29;20324;-74
2021/10/31 09:57:28;;;;;;;0.67;0.40;;;15.00;99.90;;;;;;4936782;29;20300;-75
2021/10/31 09:59:58;;;;;;;0.50;0.30;;;15.00;99.90;;;;;;4936449;29;20272;-76
2021/10/31 10:02:45;;;;;;;0.90;0.33;;;15.30;99.90;;;;;;4936534;29;20241;-75
2021/10/31 10:05:18;;;;;;;0.57;0.47;;;15.20;99.90;;;;;;4936512;29;20253;-76
2021/10/31 10:07:45;;;;;;;0.67;0.30;;;15.30;99.90;;;;;;4936148;29;20205;-75
2021/10/31 10:10:13;;;;;;;0.50;0.40;;;15.40;99.90;;;;;;4936594;29;20680;-75
2021/10/31 10:12:40;;;;;;;1.83;0.63;;;15.50;99.90;;;;;;4936339;29;20213;-75
2021/10/31 10:15:11;;;;;;;1.90;0.30;;;15.60;99.90;;;;;;4936231;29;20232;-75
2021/10/31 10:17:46;;;;;;;0.40;0.30;;;15.60;99.90;;;;;;4936732;29;20209;-75
2021/10/31 10:20:14;;;;;;;0.40;0.30;;;15.60;99.90;;;;;;4936460;29;20219;-75
2021/10/31 10:22:41;;;;;;;1.90;0.30;;;15.60;99.90;;;;;;4936330;29;20212;-75
2021/10/31 10:25:09;;;;;;;0.70;0.23;;;15.60;99.90;;;;;;4936317;29;20248;-75
2021/10/31 10:27:47;;;;;;;0.43;0.30;;;15.70;99.90;;;;;;4936477;29;20213;-75
2021/10/31 10:30:18;;;;;;;0.70;0.40;;;15.70;99.90;;;;;;4936002;29;20561;-75
2021/10/31 10:32:50;;;;;;;2.10;0.53;;;15.60;99.90;;;;;;4936187;29;20212;-75
2021/10/31 10:35:18;;;;;;;0.80;0.30;;;15.60;99.90;;;;;;4936031;29;20788;-75
2021/10/31 10:37:44;;;;;;;0.97;0.40;;;15.50;99.90;;;;;;4935991;29;20212;-76
2021/10/31 10:40:13;;;;;;;0.83;0.50;;;15.50;99.90;;;;;;4936243;29;20213;-74
2021/10/31 10:42:47;;;;;;;2.87;0.40;;;15.50;99.90;;;;;;4936217;29;20219;-75
2021/10/31 10:45:18;;;;;;;0.50;0.40;;;15.60;99.90;;;;;;4935635;29;20764;-75
2021/10/31 10:47:49;;;;;;;0.30;0.30;;;15.80;99.90;;;;;;4935998;29;20240;-75
2021/10/31 10:50:17;;;;;;;2.00;0.30;;;16.00;99.90;;;;;;4935701;29;20209;-75
2021/10/31 10:52:44;;;;;;;0.93;0.50;;;16.00;99.90;;;;;;4935903;29;20215;-75
2021/10/31 10:55:13;;;;;;;0.43;0.30;;;16.00;99.90;;;;;;4935870;29;20235;-74
2021/10/31 10:57:43;;;;;;;0.50;0.40;;;16.10;99.90;;;;;;4935736;29;20216;-75
2021/10/31 11:00:14;;;;;;;0.50;0.50;;;16.10;99.90;;;;;;4936068;29;20224;-75
2021/10/31 11:02:42;;;;;;;0.60;0.30;;;16.10;99.90;;;;;;4935707;29;20209;-75
2021/10/31 11:05:11;;;;;;;0.80;0.40;;;16.00;99.90;;;;;;4935858;29;20231;-76
2021/10/31 11:07:42;;;;;;;1.37;0.60;;;16.10;99.90;;;;;;4935386;29;20665;-76
2021/10/31 11:10:13;;;;;;;0.30;0.20;;;16.20;99.90;;;;;;4935989;29;20280;-75
2021/10/31 11:12:40;;;;;;;1.03;0.30;;;16.30;99.90;;;;;;4935997;29;20684;-75
2021/10/31 11:15:10;;;;;;;1.60;0.77;;;16.40;99.90;;;;;;4935412;29;20312;-75
2021/10/31 11:17:38;;;;;;;1.60;0.40;;;16.40;99.90;;;;;;4937801;29;20209;-75
2021/10/31 11:20:09;;;;;;;1.00;0.50;;;16.40;99.90;;;;;;4939227;29;20240;-75
2021/10/31 11:22:37;;;;;;;1.27;0.40;;;16.60;99.90;;;;;;4939573;29;20208;-75
2021/10/31 11:25:06;;;;;;;0.63;0.40;;;16.70;99.90;;;;;;4939281;29;20236;-75
2021/10/31 11:27:33;;;;;;;2.27;0.40;;;16.80;99.90;;;;;;4939380;29;20205;-75
2021/10/31 11:30:00;;;;;;;1.03;0.50;;;16.80;99.90;;;;;;4939519;29;20209;-76
2021/10/31 11:32:29;;;;;;;0.80;0.50;;;16.90;99.90;;;;;;4939138;29;20674;-76
2021/10/31 11:34:58;;;;;;;0.90;0.30;;;17.10;99.90;;;;;;4939311;29;20233;-76
2021/10/31 11:37:30;;;;;;;1.27;0.47;;;17.10;99.90;;;;;;4939469;29;20225;-75
2021/10/31 11:39:59;;;;;;;3.07;1.57;;;17.10;99.90;;;;;;4939053;29;20236;-76
2021/10/31 11:42:35;;;;;;;0.57;0.40;;;17.30;99.90;;;;;;4939071;29;20309;-75
2021/10/31 11:45:08;;;;;;;2.00;0.40;;;17.30;99.90;;;;;;4938870;29;20228;-75
2021/10/31 11:47:37;;;;;;;0.87;0.40;;;17.30;99.90;;;;;;4939107;29;20230;-75
2021/10/31 11:50:20;;;;;;;0.67;0.40;;;17.30;99.90;;;;;;4938927;29;20733;-75
2021/10/31 11:52:51;;;;;;;0.90;0.47;;;17.20;99.90;;;;;;4938781;29;20303;-75
2021/10/31 11:55:52;;;;;;;2.43;0.40;;;17.20;99.90;;;;;;4938860;29;20233;-75
2021/10/31 11:58:55;;;;;;;1.13;0.30;;;17.30;99.90;;;;;;4938811;29;20216;-76
2021/10/31 12:01:43;;;;;;;2.93;0.30;;;17.50;99.90;;;;;;4939175;29;20299;-76
2021/10/31 12:04:12;;;;;;;1.47;0.30;;;17.50;99.90;;;;;;4938534;29;20209;-76
2021/10/31 12:06:41;;;;;;;0.50;0.30;;;17.60;99.90;;;;;;4938707;29;20208;-76
2021/10/31 12:09:33;;;;;;;6.80;0.80;;;17.50;99.90;;;;;;4938344;29;20212;-76
2021/10/31 12:12:11;;;;;;;0.93;0.30;;;17.40;99.90;;;;;;4934783;29;20209;-76
2021/10/31 12:14:59;;;;;;;0.40;0.20;;;17.40;99.90;;;;;;4938285;29;20594;-76
2021/10/31 12:17:27;;;;;;;4.27;0.37;;;17.60;99.90;;;;;;4938604;29;20210;-76
2021/10/31 12:19:57;;;;;;;1.13;0.40;;;17.60;99.90;;;;;;4938271;29;20247;-76
2021/10/31 12:22:35;;;;;;;1.57;0.50;;;17.60;99.90;;;;;;4938700;29;20264;-76
2021/10/31 12:25:06;;;;;;;1.33;0.40;;;17.50;99.90;;;;;;4938300;29;20229;-77
2021/10/31 12:27:47;;;;;;;0.50;0.37;;;17.60;99.90;;;;;;4938039;29;20215;-76
2021/10/31 12:30:40;;;;;;;0.70;0.37;;;17.50;99.90;;;;;;4937585;29;20217;-76
2021/10/31 12:33:10;;;;;;;0.70;0.40;;;17.60;99.90;;;;;;4921908;29;20209;-76
2021/10/31 12:35:39;;;;;;;0.33;0.30;;;17.70;99.90;;;;;;4938068;29;20228;-76
2021/10/31 12:38:31;;;;;;;0.40;0.30;;;17.70;99.90;;;;;;4938192;29;20363;-76
2021/10/31 12:41:25;;;;;;;0.30;0.30;;;17.60;99.90;;;;;;4938238;29;20209;-75
2021/10/31 12:43:56;;;;;;;0.77;0.30;;;17.50;99.90;;;;;;4937770;29;20692;-76
2021/10/31 12:46:26;;;;;;;0.33;0.30;;;17.60;99.90;;;;;;4938097;29;20209;-76
2021/10/31 12:48:55;;;;;;;0.70;0.37;;;17.60;99.90;;;;;;4937673;29;20212;-76
2021/10/31 12:51:39;;;;;;;0.47;0.30;;;17.70;99.90;;;;;;4937866;29;20204;-76
2021/10/31 12:54:07;;;;;;;0.50;0.30;;;17.70;99.90;;;;;;4937145;29;20213;-77
2021/10/31 12:56:36;;;;;;;1.37;0.40;;;17.70;99.90;;;;;;4937828;29;20216;-76
2021/10/31 12:59:04;;;;;;;0.37;0.30;;;17.70;99.90;;;;;;4937370;29;20237;-77
2021/10/31 13:01:31;;;;;;;0.33;0.30;;;17.70;99.90;;;;;;4937533;29;20213;-76
2021/10/31 13:04:03;;;;;;;0.83;0.40;;;17.80;99.90;;;;;;4937456;29;20209;-76
2021/10/31 13:06:30;;;;;;;0.70;0.40;;;17.80;99.90;;;;;;4937532;29;20209;-76
2021/10/31 13:08:57;;;;;;;0.80;0.50;;;17.70;99.90;;;;;;4937582;29;20213;-76
2021/10/31 13:11:32;;;;;;;0.97;0.40;;;17.70;99.90;;;;;;4937550;29;20768;-75
2021/10/31 13:14:02;;;;;;;0.30;0.30;;;17.80;99.90;;;;;;4937000;29;20204;-75
2021/10/31 13:16:29;;;;;;;0.40;0.30;;;17.90;99.90;;;;;;4937549;29;20213;-76
2021/10/31 13:18:57;;;;;;;0.47;0.30;;;17.90;99.90;;;;;;4937276;29;20228;-76
2021/10/31 13:21:24;;;;;;;0.70;0.30;;;18.10;99.90;;;;;;4937473;29;20309;-76
2021/10/31 13:23:51;;;;;;;0.50;0.30;;;18.10;99.90;;;;;;4937249;29;20303;-76
2021/10/31 13:26:18;;;;;;;0.50;0.30;;;18.10;99.90;;;;;;4937662;29;20573;-76
2021/10/31 13:28:49;;;;;;;0.47;0.30;;;18.10;99.90;;;;;;4937438;29;20208;-75
2021/10/31 13:31:20;;;;;;;1.43;0.50;;;18.00;99.90;;;;;;4937022;29;20868;-76
2021/10/31 13:33:49;;;;;;;0.40;0.37;;;17.90;99.90;;;;;;4937204;29;20221;-75
2021/10/31 13:36:18;;;;;;;0.30;0.20;;;17.80;99.90;;;;;;4936817;29;20228;-75
2021/10/31 13:38:53;;;;;;;0.63;0.30;;;17.70;99.90;;;;;;4936743;29;20264;-76
2021/10/31 13:41:22;;;;;;;2.97;0.40;;;17.70;99.90;;;;;;4936840;29;20220;-76
2021/10/31 13:43:48;;;;;;;0.63;0.30;;;17.70;99.90;;;;;;4937079;29;20212;-76
2021/10/31 13:46:17;;;;;;;0.57;0.30;;;17.70;99.90;;;;;;4936844;29;20248;-76
2021/10/31 13:48:52;;;;;;;1.67;0.50;;;17.60;99.90;;;;;;4936591;29;20209;-77
2021/10/31 13:51:20;;;;;;;1.43;0.40;;;17.60;99.90;;;;;;4936753;29;20252;-75
2021/10/31 13:53:47;;;;;;;2.73;0.30;;;17.60;99.90;;;;;;4937199;29;20205;-76
2021/10/31 13:56:14;;;;;;;0.67;0.37;;;17.60;99.90;;;;;;4936467;29;20232;-75
2021/10/31 13:58:41;;;;;;;0.70;0.40;;;17.50;99.90;;;;;;4937278;29;20216;-76
2021/10/31 14:01:07;;;;;;;1.80;0.30;;;17.60;99.90;;;;;;4936228;29;20213;-75
2021/10/31 14:03:41;;;;;;;0.87;0.30;;;17.60;99.90;;;;;;4936560;29;20239;-76
2021/10/31 14:06:09;;;;;;;1.53;0.37;;;17.50;99.90;;;;;;4936129;29;20239;-76
2021/10/31 14:08:41;;;;;;;1.00;0.60;;;17.30;99.90;;;;;;4936228;29;20665;-76
2021/10/31 14:11:12;;;;;;;0.63;0.40;;;17.00;99.90;;;;;;4936450;29;20676;-75
2021/10/31 14:13:40;;;;;;;0.40;0.40;;;16.80;99.90;;;;;;4936493;29;20275;-76
2021/10/31 14:16:17;;;;;;;2.23;0.47;;;16.70;99.90;;;;;;4936111;29;20229;-76
2021/10/31 14:18:46;;;;;;;0.97;0.53;;;16.50;99.90;;;;;;4936121;29;20219;-75
2021/10/31 14:21:14;;;;;;;0.97;0.87;;;16.50;99.90;;;;;;4936377;29;20236;-75
2021/10/31 14:23:42;;;;;;;1.17;0.47;;;16.40;99.90;;;;;;4936273;29;20244;-75
2021/10/31 14:26:11;;;;;;;1.13;0.40;;;16.40;99.90;;;;;;4936125;29;20601;-75
2021/10/31 14:28:41;;;;;;;2.57;0.50;;;16.40;99.90;;;;;;4936235;29;20205;-76
2021/10/31 14:31:10;;;;;;;0.40;0.30;;;16.30;99.90;;;;;;4936292;29;20212;-75
2021/10/31 14:33:39;;;;;;;0.60;0.40;;;16.20;99.90;;;;;;4936309;29;20287;-75
2021/10/31 14:36:11;;;;;;;1.10;0.50;;;16.20;99.90;;;;;;4936008;29;20228;-75
2021/10/31 14:38:40;;;;;;;0.97;0.50;;;16.30;99.90;;;;;;4936050;29;20211;-75
2021/10/31 14:41:11;;;;;;;0.80;0.50;;;16.20;99.90;;;;;;4936064;29;20247;-75
2021/10/31 14:43:39;;;;;;;1.77;0.80;;;16.20;99.90;;;;;;4936107;29;20208;-75
2021/10/31 14:46:12;;;;;;;0.90;0.50;;;16.10;99.90;;;;;;4935841;29;20231;-75
2021/10/31 14:48:42;;;;;;;1.37;0.60;;;16.10;99.90;;;;;;4936144;29;20213;-75
2021/10/31 14:51:23;;;;;;;0.97;0.50;;;16.10;99.90;;;;;;4935373;29;20248;-75
2021/10/31 14:53:54;;;;;;;1.87;0.73;;;16.20;99.90;;;;;;4935657;29;20251;-75
2021/10/31 14:56:24;;;;;;;1.83;0.70;;;16.30;99.90;;;;;;4935698;29;20213;-75
2021/10/31 14:58:51;;;;;;;0.67;0.47;;;16.30;99.90;;;;;;4935463;29;20224;-74
2021/10/31 15:01:24;;;;;;;1.53;0.60;;;16.20;99.90;;;;;;4935724;29;20275;-75
2021/10/31 15:03:50;;;;;;;1.30;0.60;;;16.20;99.90;;;;;;4935695;29;20260;-75
2021/10/31 15:06:17;;;;;;;1.17;0.70;;;16.10;99.90;;;;;;4935687;29;20204;-75
2021/10/31 15:08:46;;;;;;;1.30;0.70;;;16.10;99.90;;;;;;4935647;29;20209;-75
2021/10/31 15:11:13;;;;;;;1.27;0.80;;;16.00;99.90;;;;;;4935226;29;20216;-75
2021/10/31 15:13:40;;;;;;;1.23;0.50;;;16.00;99.90;;;;;;4935026;29;20697;-75
2021/10/31 15:16:07;;;;;;;0.90;0.43;;;16.00;99.90;;;;;;4934708;29;20239;-75
2021/10/31 15:18:35;;;;;;;2.13;0.50;;;15.90;99.90;;;;;;4935387;29;20213;-76
2021/10/31 15:21:03;;;;;;;0.60;0.43;;;15.80;99.90;;;;;;4935395;29;20270;-75
2021/10/31 15:23:30;;;;;;;1.07;0.60;;;15.80;99.90;;;;;;4935855;29;20209;-75
2021/10/31 15:25:58;;;;;;;0.50;0.33;;;15.80;99.90;;;;;;4935476;29;20229;-75
2021/10/31 15:28:25;;;;;;;0.87;0.50;;;15.80;99.90;;;;;;4935733;29;20209;-75
2021/10/31 15:30:52;;;;;;;1.80;0.40;;;15.70;99.90;;;;;;4935257;29;20209;-75
2021/10/31 15:33:22;;;;;;;0.43;0.40;;;15.70;99.90;;;;;;4935456;29;20204;-75
2021/10/31 15:35:49;;;;;;;2.10;0.43;;;15.80;99.90;;;;;;4935572;29;20236;-75
2021/10/31 15:38:16;;;;;;;1.10;0.50;;;15.80;99.90;;;;;;4935654;29;20264;-75
2021/10/31 15:40:43;;;;;;;1.07;0.60;;;15.80;99.90;;;;;;4935406;29;20240;-75
2021/10/31 15:43:11;;;;;;;1.50;0.40;;;15.80;99.90;;;;;;4935496;29;20299;-76
2021/10/31 15:45:38;;;;;;;0.40;0.40;;;15.80;99.90;;;;;;4935296;29;20229;-75
2021/10/31 15:48:05;;;;;;;0.87;0.60;;;15.80;99.90;;;;;;4935555;29;20220;-76
2021/10/31 15:50:32;;;;;;;1.07;0.50;;;15.80;99.90;;;;;;4935312;29;20657;-75
2021/10/31 15:52:59;;;;;;;2.13;0.90;;;15.70;99.90;;;;;;4935731;29;20209;-75
2021/10/31 15:55:26;;;;;;;1.27;0.60;;;15.70;99.90;;;;;;4935396;29;20589;-75
2021/10/31 15:57:53;;;;;;;0.70;0.40;;;15.70;99.90;;;;;;4935418;29;20209;-75
2021/10/31 16:00:21;;;;;;;3.40;0.40;;;15.80;99.90;;;;;;4935017;29;20241;-75
2021/10/31 16:02:57;;;;;;;0.50;0.40;;;15.70;99.90;;;;;;4935954;29;20213;-75
2021/10/31 16:05:24;;;;;;;0.40;0.37;;;15.70;99.90;;;;;;4938780;29;20224;-74
2021/10/31 16:07:52;;;;;;;0.70;0.40;;;15.70;99.90;;;;;;4938551;29;20676;-74
2021/10/31 16:10:19;;;;;;;1.33;0.60;;;15.70;99.90;;;;;;4938186;29;20688;-75
2021/10/31 16:12:46;;;;;;;1.27;0.83;;;15.70;99.90;;;;;;4938458;29;20295;-75
2021/10/31 16:15:13;;;;;;;1.13;0.57;;;15.70;99.90;;;;;;4938330;29;20232;-76
2021/10/31 16:17:42;;;;;;;0.90;0.47;;;15.70;99.90;;;;;;4938477;29;20215;-75
2021/10/31 16:20:10;;;;;;;0.73;0.50;;;15.60;99.90;;;;;;4938489;29;20242;-75
2021/10/31 16:22:39;;;;;;;0.80;0.60;;;15.60;99.90;;;;;;4935469;29;20674;-77
2021/10/31 16:25:07;;;;;;;0.70;0.50;;;15.70;99.90;;;;;;4938295;29;20575;-77
2021/10/31 16:27:34;;;;;;;2.20;0.57;;;15.60;99.90;;;;;;4937754;29;20676;-75
2021/10/31 16:30:01;;;;;;;1.63;0.67;;;15.60;99.90;;;;;;4950320;29;20668;-76
2021/10/31 16:32:29;;;;;;;1.30;0.67;;;15.70;99.90;;;;;;4954744;29;20242;-75
2021/10/31 16:34:58;;;;;;;1.27;0.73;;;15.80;99.90;;;;;;4937842;29;20264;-76
2021/10/31 16:37:25;;;;;;;1.30;0.70;;;15.70;99.90;;;;;;4937434;29;20561;-74
2021/10/31 16:39:53;;;;;;;1.90;0.87;;;15.70;99.90;;;;;;4937402;29;20213;-75
2021/10/31 16:42:20;;;;;;;1.77;0.60;;;15.60;99.90;;;;;;4949773;29;20208;-74
2021/10/31 16:44:47;;;;;;;1.23;0.80;;;15.60;99.90;;;;;;4937074;29;20229;-76
2021/10/31 16:47:19;;;;;;;0.90;0.50;;;15.50;99.90;;;;;;4936065;29;20208;-75
2021/10/31 16:49:47;;;;;;;1.43;0.50;;;14.90;99.90;;;;;;4937869;29;20559;-75
2021/10/31 16:52:16;;;;;;;3.33;0.93;;;14.30;99.90;;;;;;4941349;29;20211;-75
2021/10/31 16:54:43;;;;;;;1.30;0.93;;;14.10;99.90;;;;;;4934872;29;20360;-75
2021/10/31 16:57:11;;;;;;;5.43;1.77;;;13.90;99.90;;;;;;4938200;29;20212;-77
2021/10/31 16:59:38;;;;;;;2.37;1.13;;;13.60;99.90;;;;;;4941973;29;20570;-75
2021/10/31 17:02:06;;;;;;;3.87;1.23;;;13.40;99.90;;;;;;4956092;29;20254;-74
2021/10/31 17:04:33;;;;;;;4.23;1.60;;;13.00;99.90;;;;;;4937232;29;20235;-75
2021/10/31 17:07:00;;;;;;;5.40;1.80;;;12.80;99.90;;;;;;4936765;29;20209;-74
2021/10/31 17:09:28;;;;;;;6.87;1.90;;;12.80;99.90;;;;;;4936653;29;20215;-74
2021/10/31 17:11:55;;;;;;;3.07;0.90;;;12.70;99.90;;;;;;4936084;29;20219;-75
2021/10/31 17:14:21;;;;;;;9.77;1.50;;;12.60;99.90;;;;;;4935968;29;20725;-74
2021/10/31 17:16:48;;;;;;;2.70;1.30;;;12.50;99.90;;;;;;4936841;29;20215;-75
2021/10/31 17:19:15;;;;;;;5.63;1.70;;;12.40;99.90;;;;;;4936586;29;20213;-73
2021/10/31 17:21:44;;;;;;;7.40;1.40;;;12.40;99.90;;;;;;4936896;29;20244;-73
2021/10/31 17:24:12;;;;;;;11.17;2.77;;;12.50;99.90;;;;;;4936590;29;20565;-73
2021/10/31 17:26:42;;;;;;;5.13;1.50;;;12.50;99.90;;;;;;4936721;29;20213;-74
2021/10/31 17:29:10;;;;;;;8.13;3.43;;;12.50;99.90;;;;;;4936537;29;20303;-73
2021/10/31 17:31:38;;;;;;;9.07;2.10;;;12.60;99.90;;;;;;4936853;29;20219;-74
2021/10/31 17:34:05;;;;;;;5.17;2.10;;;12.70;99.90;;;;;;4936553;29;20209;-74
2021/10/31 17:36:33;;;;;;;4.90;1.40;;;12.70;99.90;;;;;;4936320;29;20219;-74
2021/10/31 17:39:00;;;;;;;5.43;1.33;;;12.70;99.90;;;;;;4936486;29;20715;-74
2021/10/31 17:41:28;;;;;;;5.97;1.30;;;12.80;99.90;;;;;;4935687;29;20244;-74
2021/10/31 17:43:58;;;;;;;7.90;1.53;;;12.80;99.90;;;;;;4936044;29;20570;-74
2021/10/31 17:46:25;;;;;;;2.43;0.90;;;12.90;99.90;;;;;;4936293;29;20209;-74
2021/10/31 17:48:51;;;;;;;2.83;0.80;;;12.70;99.90;;;;;;4945303;29;20661;-75
2021/10/31 17:51:20;;;;;;;2.93;0.70;;;12.70;99.90;;;;;;4955824;29;20211;-75
2021/10/31 17:53:47;;;;;;;2.70;0.80;;;12.60;99.90;;;;;;4942775;29;20669;-75
2021/10/31 17:56:14;;;;;;;4.33;0.90;;;12.60;99.90;;;;;;4936291;29;20316;-75
2021/10/31 17:58:41;;;;;;;2.23;0.60;;;12.60;99.90;;;;;;4936387;29;20223;-74
2021/10/31 18:01:09;;;;;;;1.50;0.60;;;12.50;99.90;;;;;;4935720;29;20236;-75
2021/10/31 18:03:36;;;;;;;3.27;0.70;;;12.50;99.90;;;;;;4935567;29;20209;-73
2021/10/31 18:06:04;;;;;;;3.87;0.70;;;12.50;99.90;;;;;;4935916;29;20232;-75
2021/10/31 18:08:31;;;;;;;2.57;0.80;;;12.40;99.90;;;;;;4935986;29;20209;-74
2021/10/31 18:10:57;;;;;;;9.27;1.07;;;12.50;99.90;;;;;;4935961;29;20583;-75
2021/10/31 18:13:24;;;;;;;4.90;1.30;;;12.50;99.90;;;;;;4935416;29;20299;-74
2021/10/31 18:15:51;;;;;;;6.40;0.80;;;12.40;99.90;;;;;;4935210;29;20735;-75
2021/10/31 18:18:19;;;;;;;4.13;0.90;;;12.40;99.90;;;;;;4935852;29;20212;-74
2021/10/31 18:20:46;;;;;;;4.03;1.10;;;12.40;99.90;;;;;;4935476;29;20258;-76
2021/10/31 18:23:13;;;;;;;4.07;0.90;;;12.40;99.90;;;;;;4935497;29;20565;-75
2021/10/31 18:25:40;;;;;;;3.37;0.90;;;12.40;99.90;;;;;;4935497;29;20233;-76
2021/10/31 18:28:09;;;;;;;3.90;1.07;;;12.30;99.90;;;;;;4935426;29;20204;-74
2021/10/31 18:30:38;;;;;;;8.77;1.90;;;12.30;99.90;;;;;;4935273;29;20268;-75
2021/10/31 18:33:05;;;;;;;3.53;1.00;;;12.20;99.90;;;;;;4935235;29;20215;-75
2021/10/31 18:35:33;;;;;;;4.03;1.00;;;12.20;99.90;;;;;;4935568;29;20242;-74
2021/10/31 18:38:00;;;;;;;6.00;1.00;;;12.10;99.90;;;;;;4935907;29;20208;-76
2021/10/31 18:40:28;;;;;;;5.97;1.37;;;12.10;99.90;;;;;;4935405;29;20209;-76
2021/10/31 18:42:54;;;;;;;2.90;0.90;;;12.20;99.90;;;;;;4934886;29;20295;-75
2021/10/31 18:45:22;;;;;;;3.87;0.90;;;12.20;99.90;;;;;;4935437;29;20315;-76
2021/10/31 18:47:50;;;;;;;6.07;1.00;;;12.20;99.90;;;;;;4936802;29;20303;-73
2021/10/31 18:50:19;;;;;;;4.53;0.87;;;12.10;99.90;;;;;;4954403;29;20214;-74
2021/10/31 18:52:47;;;;;;;3.83;0.90;;;12.00;99.90;;;;;;4949668;29;20224;-73
2021/10/31 18:55:17;;;;;;;3.50;1.00;;;12.00;99.90;;;;;;4935139;29;20327;-74
2021/10/31 18:57:44;;;;;;;7.67;0.87;;;11.90;99.90;;;;;;4934637;29;20236;-74
2021/10/31 19:00:14;;;;;;;4.43;1.10;;;11.90;99.90;;;;;;4934968;29;20216;-76
2021/10/31 19:02:41;;;;;;;5.67;1.23;;;11.80;99.90;;;;;;4935328;29;20268;-74
2021/10/31 19:05:11;;;;;;;7.67;0.80;;;11.80;99.90;;;;;;4935454;29;20236;-74
2021/10/31 19:07:38;;;;;;;8.37;1.10;;;11.80;99.90;;;;;;4935152;29;20271;-75
2021/10/31 19:10:08;;;;;;;4.30;0.93;;;11.60;99.90;;;;;;4934960;29;20205;-74
2021/10/31 19:12:35;;;;;;;4.53;1.03;;;11.60;99.90;;;;;;4934987;29;20216;-74
2021/10/31 19:15:03;;;;;;;4.90;0.90;;;11.60;99.90;;;;;;4934938;29;20275;-75
2021/10/31 19:17:30;;;;;;;4.73;1.00;;;11.60;99.90;;;;;;4935266;29;20321;-76
2021/10/31 19:19:56;;;;;;;3.83;0.90;;;11.50;99.90;;;;;;4935259;29;20236;-74
2021/10/31 19:22:24;;;;;;;5.50;0.97;;;11.50;99.90;;;;;;4934655;29;20237;-76
2021/10/31 19:24:51;;;;;;;4.77;0.93;;;11.40;99.90;;;;;;4934295;29;20239;-75
2021/10/31 19:27:19;;;;;;;2.07;0.90;;;11.40;99.90;;;;;;4934691;29;20244;-74
2021/10/31 19:29:46;;;;;;;7.00;1.13;;;11.30;99.90;;;;;;4934936;29;20227;-75
2021/10/31 19:32:14;;;;;;;6.50;0.77;;;11.30;99.90;;;;;;4935008;29;20208;-76
2021/10/31 19:34:41;;;;;;;4.47;1.00;;;11.40;99.90;;;;;;4934762;29;20229;-76
2021/10/31 19:37:08;;;;;;;2.20;0.97;;;11.40;99.90;;;;;;4934829;29;20228;-75
2021/10/31 19:39:35;;;;;;;5.23;1.13;;;11.40;99.90;;;;;;4938586;29;20596;-75
2021/10/31 19:42:02;;;;;;;7.13;0.70;;;11.30;99.90;;;;;;4936152;29;20240;-76
2021/10/31 19:44:31;;;;;;;3.27;1.23;;;11.30;99.90;;;;;;4938718;29;20225;-76
2021/10/31 19:46:58;;;;;;;7.93;1.17;;;11.20;99.90;;;;;;4938897;29;20209;-76
2021/10/31 19:49:26;;;;;;;6.20;1.20;;;11.20;99.90;;;;;;4938816;29;20264;-76
2021/10/31 19:51:53;;;;;;;4.53;1.67;;;11.20;99.90;;;;;;4939235;29;20219;-76
2021/10/31 19:54:21;;;;;;;4.77;0.87;;;11.10;99.90;;;;;;4938821;29;20239;-76
2021/10/31 19:56:49;;;;;;;4.33;1.00;;;11.10;99.90;;;;;;4938804;29;20216;-77
2021/10/31 19:59:16;;;;;;;3.80;0.80;;;11.10;99.90;;;;;;4938598;29;20216;-76
2021/10/31 20:01:46;;;;;;;5.23;0.70;;;11.10;99.90;;;;;;4966573;23;20243;-76
2021/10/31 20:04:13;;;;;;;5.63;1.17;;;11.10;99.90;;;;;;4957424;29;20208;-77
2021/10/31 20:06:40;;;;;;;7.37;1.10;;;11.10;99.90;;;;;;4957707;29;20207;-77
2021/10/31 20:09:08;;;;;;;2.10;0.80;;;11.00;99.90;;;;;;4957719;29;20204;-77
2021/10/31 20:11:35;;;;;;;4.90;1.00;;;11.00;99.90;;;;;;4957870;29;20558;-75
2021/10/31 20:14:04;;;;;;;3.50;1.20;;;11.00;99.90;;;;;;4957717;29;20208;-75
2021/10/31 20:16:31;;;;;;;5.00;1.20;;;11.00;99.90;;;;;;4957814;29;20208;-76
2021/10/31 20:19:00;;;;;;;6.80;0.80;;;11.00;99.90;;;;;;4957635;29;20212;-76
2021/10/31 20:21:26;;;;;;;2.30;0.63;;;10.90;99.90;;;;;;4957664;29;20242;-75
2021/10/31 20:23:53;;;;;;;8.97;1.03;;;10.90;99.90;;;;;;4957649;29;20306;-77
2021/10/31 20:26:20;;;;;;;3.70;1.20;;;10.90;99.90;;;;;;4957385;29;20211;-76
2021/10/31 20:28:47;;;;;;;2.53;0.63;;;10.90;99.90;;;;;;4957178;29;20212;-76
2021/10/31 20:31:15;;;;;;;4.47;1.00;;;11.00;99.90;;;;;;4956864;29;20208;-77
2021/10/31 20:33:43;;;;;;;6.33;1.27;;;11.00;99.90;;;;;;4957095;29;20223;-75
2021/10/31 20:36:12;;;;;;;8.93;1.57;;;11.00;99.90;;;;;;4957257;29;20326;-76
2021/10/31 20:38:42;;;;;;;8.30;1.77;;;10.90;99.90;;;;;;4957268;29;20208;-75
2021/10/31 20:41:08;;;;;;;8.13;1.50;;;10.90;99.90;;;;;;4956903;29;20304;-76
2021/10/31 20:43:36;;;;;;;7.43;1.67;;;10.80;99.90;;;;;;4957200;29;20216;-76
2021/10/31 20:46:03;;;;;;;6.93;1.63;;;10.80;99.90;;;;;;4956928;29;20721;-76
2021/10/31 20:48:30;;;;;;;3.27;1.13;;;10.80;99.90;;;;;;4956916;29;20687;-76
2021/10/31 20:50:56;;;;;;;5.10;1.43;;;10.80;99.90;;;;;;4956059;28;20208;-76
2021/10/31 20:53:25;;;;;;;8.13;1.77;;;10.80;99.90;;;;;;4956435;29;20208;-76
2021/10/31 20:55:56;;;;;;;5.80;1.57;;;10.80;99.90;;;;;;4956572;29;20236;-76